createdAt,value
2018-09-28T00:00:14.492Z,10.21
2018-09-28T00:02:42.369Z,10.21
2018-09-28T00:05:09.885Z,10.21
2018-09-28T00:07:37.384Z,10.22
2018-09-28T00:10:04.942Z,10.22
2018-09-28T00:12:32.798Z,10.21
2018-09-28T00:15:00.307Z,10.19
2018-09-28T00:17:27.792Z,10.16
2018-09-28T00:19:55.346Z,10.11
2018-09-28T00:22:23.220Z,10.05
2018-09-28T00:24:50.701Z,9.99
2018-09-28T00:27:18.948Z,9.92
2018-09-28T00:29:46.468Z,9.86
2018-09-28T00:32:14.431Z,9.82
2018-09-28T00:34:41.927Z,9.78
2018-09-28T00:37:09.472Z,9.74
2018-09-28T00:39:36.972Z,9.72
2018-09-28T00:42:05.932Z,9.71
2018-09-28T00:44:33.519Z,9.68
2018-09-28T00:47:01.053Z,9.68
2018-09-28T00:49:28.589Z,9.66
2018-09-28T00:51:56.600Z,9.64
2018-09-28T00:54:24.117Z,9.61
2018-09-28T00:56:51.681Z,9.58
2018-09-28T00:59:19.191Z,9.53
2018-09-28T01:01:47.796Z,9.49
2018-09-28T01:04:15.296Z,9.48
2018-09-28T01:06:42.799Z,9.46
2018-09-28T01:09:11.435Z,9.45
2018-09-28T01:11:38.935Z,9.42
2018-09-28T01:14:06.464Z,9.43
2018-09-28T01:16:33.950Z,9.42
2018-09-28T01:19:01.905Z,9.42
2018-09-28T01:21:29.512Z,9.41
2018-09-28T01:23:56.990Z,9.40
2018-09-28T01:26:24.499Z,9.36
2018-09-28T01:28:52.343Z,9.33
2018-09-28T01:31:19.868Z,9.26
2018-09-28T01:33:47.388Z,9.22
2018-09-28T01:36:14.875Z,9.19
2018-09-28T01:38:44.794Z,9.17
2018-09-28T01:41:12.314Z,9.15
2018-09-28T01:43:39.855Z,9.13
2018-09-28T01:46:07.330Z,9.13
2018-09-28T01:48:35.241Z,9.12
2018-09-28T01:51:02.762Z,9.09
2018-09-28T01:53:30.235Z,9.04
2018-09-28T01:55:58.334Z,9.00
2018-09-28T01:58:25.801Z,8.96
2018-09-28T02:00:54.722Z,8.91
2018-09-28T02:03:22.190Z,8.90
2018-09-28T02:05:53.768Z,8.88
2018-09-28T02:08:21.262Z,8.86
2018-09-28T02:10:48.793Z,8.83
2018-09-28T02:13:17.654Z,8.81
2018-09-28T02:15:45.186Z,8.80
2018-09-28T02:18:12.759Z,8.77
2018-09-28T02:20:40.268Z,8.79
2018-09-28T02:23:08.260Z,8.78
2018-09-28T02:25:35.799Z,8.77
2018-09-28T02:28:03.336Z,8.75
2018-09-28T02:30:30.834Z,8.68
2018-09-28T02:32:58.647Z,8.61
2018-09-28T02:35:26.143Z,8.58
2018-09-28T02:37:53.675Z,8.56
2018-09-28T02:40:21.175Z,8.50
2018-09-28T02:42:49.119Z,8.41
2018-09-28T02:45:16.628Z,8.31
2018-09-28T02:47:44.207Z,8.26
2018-09-28T02:50:11.733Z,8.23
2018-09-28T02:52:39.564Z,8.23
2018-09-28T02:55:07.636Z,8.24
2018-09-28T02:57:35.147Z,8.25
2018-09-28T03:00:02.656Z,8.31
2018-09-28T03:02:30.661Z,8.35
2018-09-28T03:04:58.473Z,8.41
2018-09-28T03:07:26.003Z,8.47
2018-09-28T03:09:53.539Z,8.52
2018-09-28T03:12:21.475Z,8.57
2018-09-28T03:14:49.603Z,8.60
2018-09-28T03:17:17.368Z,8.58
2018-09-28T03:19:45.293Z,8.57
2018-09-28T03:22:12.817Z,8.57
2018-09-28T03:24:40.368Z,8.54
2018-09-28T03:27:08.271Z,8.50
2018-09-28T03:29:35.820Z,8.48
2018-09-28T03:32:03.370Z,8.46
2018-09-28T03:34:31.441Z,8.45
2018-09-28T03:36:59.313Z,8.47
2018-09-28T03:39:26.829Z,8.43
2018-09-28T03:41:54.323Z,8.39
2018-09-28T03:44:22.906Z,8.35
2018-09-28T03:46:50.864Z,8.31
2018-09-28T03:49:18.388Z,8.28
2018-09-28T03:51:45.944Z,8.25
2018-09-28T03:54:13.776Z,8.25
2018-09-28T03:56:41.287Z,8.32
2018-09-28T03:59:08.827Z,8.44
2018-09-28T04:01:36.314Z,8.60
2018-09-28T04:04:07.658Z,8.73
2018-09-28T04:06:35.168Z,8.83
2018-09-28T04:09:02.755Z,8.92
2018-09-28T04:11:30.276Z,9.03
2018-09-28T04:13:58.119Z,9.11
2018-09-28T04:16:26.477Z,9.18
2018-09-28T04:18:54.014Z,9.24
2018-09-28T04:21:22.088Z,9.29
2018-09-28T04:23:50.021Z,9.34
2018-09-28T04:26:17.537Z,9.32
2018-09-28T04:28:45.028Z,9.20
2018-09-28T04:31:12.977Z,9.05
2018-09-28T04:33:40.511Z,8.92
2018-09-28T04:36:08.076Z,8.77
2018-09-28T04:38:35.992Z,8.67
2018-09-28T04:41:03.530Z,8.65
2018-09-28T04:43:32.718Z,8.71
2018-09-28T04:46:00.627Z,8.78
2018-09-28T04:48:28.162Z,8.91
2018-09-28T04:50:55.638Z,9.06
2018-09-28T04:53:23.575Z,9.17
2018-09-28T04:55:51.235Z,9.26
2018-09-28T04:58:20.237Z,9.35
2018-09-28T05:00:48.872Z,9.43
2018-09-28T05:03:16.427Z,9.50
2018-09-28T05:05:43.899Z,9.57
2018-09-28T05:08:11.824Z,9.61
2018-09-28T05:10:39.478Z,9.65
2018-09-28T05:13:07.048Z,9.70
2018-09-28T05:15:36.045Z,9.76
2018-09-28T05:18:03.547Z,9.83
2018-09-28T05:20:31.052Z,9.91
2018-09-28T05:22:59.106Z,10.00
2018-09-28T05:25:26.705Z,10.07
2018-09-28T05:27:55.104Z,10.13
2018-09-28T05:30:23.045Z,10.17
2018-09-28T05:32:50.758Z,10.20
2018-09-28T05:35:18.135Z,10.25
2018-09-28T05:37:46.128Z,10.28
2018-09-28T05:40:13.654Z,10.30
2018-09-28T05:42:41.180Z,10.35
2018-09-28T05:45:08.970Z,10.38
2018-09-28T05:47:36.526Z,10.42
2018-09-28T05:50:04.050Z,10.44
2018-09-28T05:52:31.959Z,10.42
2018-09-28T05:54:59.487Z,10.42
2018-09-28T05:57:26.979Z,10.40
2018-09-28T06:00:00.020Z,10.39
2018-09-28T06:02:32.731Z,10.41
2018-09-28T06:05:05.320Z,10.41
2018-09-28T06:07:34.230Z,10.42
2018-09-28T06:10:02.444Z,10.46
2018-09-28T06:12:31.703Z,10.51
2018-09-28T06:15:00.002Z,10.55
2018-09-28T06:17:27.515Z,10.56
2018-09-28T06:19:55.059Z,10.61
2018-09-28T06:22:22.988Z,10.63
2018-09-28T06:24:50.484Z,10.68
2018-09-28T06:27:17.971Z,10.70
2018-09-28T06:29:47.002Z,10.70
2018-09-28T06:32:14.617Z,10.72
2018-09-28T06:34:43.323Z,10.74
2018-09-28T06:37:13.910Z,10.76
2018-09-28T06:39:41.651Z,10.77
2018-09-28T06:42:12.908Z,10.78
2018-09-28T06:44:40.770Z,10.77
2018-09-28T06:47:10.226Z,10.76
2018-09-28T06:49:38.052Z,10.72
2018-09-28T06:52:10.275Z,10.69
2018-09-28T06:54:39.292Z,10.72
2018-09-28T06:57:07.459Z,10.78
2018-09-28T06:59:37.292Z,10.86
2018-09-28T07:02:04.795Z,10.91
2018-09-28T07:04:33.956Z,10.95
2018-09-28T07:07:02.135Z,10.99
2018-09-28T07:09:29.735Z,11.00
2018-09-28T07:11:57.487Z,11.03
2018-09-28T07:14:26.220Z,11.07
2018-09-28T07:16:53.809Z,11.10
2018-09-28T07:19:21.540Z,11.16
2018-09-28T07:21:49.366Z,11.20
2018-09-28T07:24:20.556Z,11.26
2018-09-28T07:26:48.073Z,11.31
2018-09-28T07:29:15.636Z,11.35
2018-09-28T07:31:43.168Z,11.40
2018-09-28T07:34:11.978Z,11.45
2018-09-28T07:36:39.598Z,11.52
2018-09-28T07:39:07.059Z,11.54
2018-09-28T07:41:34.971Z,11.56
2018-09-28T07:44:02.555Z,11.60
2018-09-28T07:46:30.069Z,11.61
2018-09-28T07:48:58.019Z,11.60
2018-09-28T07:51:26.351Z,11.59
2018-09-28T07:53:53.890Z,11.58
2018-09-28T07:56:21.859Z,11.56
2018-09-28T07:58:49.397Z,11.55
2018-09-28T08:01:17.868Z,11.56
2018-09-28T08:03:45.805Z,11.58
2018-09-28T08:06:13.410Z,11.63
2018-09-28T08:08:40.913Z,11.67
2018-09-28T08:11:10.580Z,11.69
2018-09-28T08:13:38.903Z,11.72
2018-09-28T08:16:08.699Z,11.73
2018-09-28T08:18:37.507Z,11.74
2018-09-28T08:21:05.284Z,11.76
2018-09-28T08:23:32.866Z,11.80
2018-09-28T08:26:00.923Z,11.84
2018-09-28T08:28:28.538Z,11.88
2018-09-28T08:30:56.094Z,11.90
2018-09-28T08:33:24.083Z,11.93
2018-09-28T08:35:51.592Z,12.00
2018-09-28T08:38:19.075Z,12.03
2018-09-28T08:40:50.542Z,12.09
2018-09-28T08:43:18.648Z,12.14
2018-09-28T08:45:46.173Z,12.20
2018-09-28T08:48:14.144Z,12.23
2018-09-28T08:50:42.950Z,12.30
2018-09-28T08:53:10.546Z,12.33
2018-09-28T08:55:38.737Z,12.41
2018-09-28T08:58:06.281Z,12.48
2018-09-28T09:00:34.819Z,12.55
2018-09-28T09:03:05.075Z,12.63
2018-09-28T09:05:32.616Z,12.69
2018-09-28T09:08:00.131Z,12.75
2018-09-28T09:10:29.427Z,12.82
2018-09-28T09:12:58.006Z,12.87
2018-09-28T09:15:26.235Z,12.92
2018-09-28T09:17:57.230Z,12.98
2018-09-28T09:20:25.426Z,13.03
2018-09-28T09:22:54.691Z,13.09
2018-09-28T09:25:23.618Z,13.12
2018-09-28T09:27:51.187Z,13.15
2018-09-28T09:30:19.627Z,13.20
2018-09-28T09:32:48.346Z,13.25
2018-09-28T09:35:16.138Z,13.29
2018-09-28T09:37:44.362Z,13.34
2018-09-28T09:40:13.431Z,13.37
2018-09-28T09:42:42.346Z,13.38
2018-09-28T09:45:13.837Z,13.40
2018-09-28T09:47:42.579Z,13.41
2018-09-28T09:50:11.447Z,13.42
2018-09-28T09:52:40.592Z,13.41
2018-09-28T09:55:09.655Z,13.40
2018-09-28T09:57:37.243Z,13.38
2018-09-28T10:00:05.439Z,13.31
2018-09-28T10:02:38.485Z,13.24
2018-09-28T10:05:06.049Z,13.17
2018-09-28T10:07:33.531Z,13.15
2018-09-28T10:10:01.108Z,13.17
2018-09-28T10:12:29.434Z,13.24
2018-09-28T10:14:57.991Z,13.34
2018-09-28T10:17:25.559Z,13.48
2018-09-28T10:19:53.089Z,13.61
2018-09-28T10:22:22.483Z,13.71
2018-09-28T10:24:50.040Z,13.82
2018-09-28T10:27:17.639Z,13.94
2018-09-28T10:29:46.142Z,14.07
2018-09-28T10:32:15.577Z,14.18
2018-09-28T10:34:44.412Z,14.27
2018-09-28T10:37:12.585Z,14.32
2018-09-28T10:39:42.426Z,14.36
2018-09-28T10:42:16.370Z,14.39
2018-09-28T10:44:43.887Z,14.40
2018-09-28T10:47:12.220Z,14.39
2018-09-28T10:49:47.403Z,14.35
2018-09-28T10:52:15.768Z,14.33
2018-09-28T10:54:44.270Z,14.30
2018-09-28T10:57:13.874Z,14.24
2018-09-28T10:59:42.425Z,14.18
2018-09-28T11:02:12.282Z,14.16
2018-09-28T11:12:49.683Z,14.10
2018-09-28T11:15:18.344Z,14.07
2018-09-28T11:17:46.241Z,14.06
2018-09-28T11:20:15.578Z,14.07
2018-09-28T11:22:44.135Z,14.05
2018-09-28T11:25:14.765Z,14.07
2018-09-28T11:27:43.670Z,14.11
2018-09-28T11:30:11.543Z,14.16
2018-09-28T11:32:39.124Z,14.21
2018-09-28T11:35:10.268Z,14.26
2018-09-28T11:37:39.056Z,14.31
2018-09-28T11:40:07.303Z,14.35
2018-09-28T11:42:34.844Z,14.42
2018-09-28T11:45:07.286Z,14.53
2018-09-28T11:47:37.760Z,14.67
2018-09-28T11:50:05.289Z,14.81
2018-09-28T11:52:35.011Z,14.94
2018-09-28T11:55:02.697Z,15.00
2018-09-28T11:57:30.495Z,15.02
2018-09-28T12:00:03.306Z,15.02
2018-09-28T12:02:32.108Z,15.05
2018-09-28T12:05:00.721Z,15.12
2018-09-28T12:07:28.580Z,15.21
2018-09-28T12:09:56.101Z,15.28
2018-09-28T12:12:24.347Z,15.28
2018-09-28T12:14:52.199Z,15.27
2018-09-28T12:17:20.535Z,15.29
2018-09-28T12:19:49.693Z,15.40
2018-09-28T12:22:17.594Z,15.53
2018-09-28T12:24:45.384Z,15.65
2018-09-28T12:27:12.948Z,15.74
2018-09-28T12:29:41.835Z,15.86
2018-09-28T12:32:09.565Z,15.98
2018-09-28T12:34:37.104Z,16.07
2018-09-28T12:37:05.035Z,16.17
2018-09-28T12:39:35.140Z,16.27
2018-09-28T12:42:02.600Z,16.45
2018-09-28T12:44:31.463Z,16.64
2018-09-28T12:47:00.627Z,16.90
2018-09-28T12:49:29.207Z,17.24
2018-09-28T12:52:02.732Z,17.52
2018-09-28T12:54:33.135Z,17.70
2018-09-28T12:57:01.173Z,17.81
2018-09-28T12:59:31.650Z,17.89
2018-09-28T13:01:59.205Z,17.82
2018-09-28T13:04:26.708Z,17.76
2018-09-28T13:06:54.220Z,17.67
2018-09-28T13:09:21.738Z,17.59
2018-09-28T13:11:50.956Z,17.58
2018-09-28T13:14:19.413Z,17.56
2018-09-28T13:16:47.551Z,17.63
2018-09-28T13:19:15.545Z,17.76
2018-09-28T13:21:43.116Z,17.91
2018-09-28T13:24:10.677Z,18.03
2018-09-28T13:26:39.107Z,18.18
2018-09-28T13:29:07.709Z,18.29
2018-09-28T13:31:35.259Z,18.21
2018-09-28T13:34:03.199Z,18.00
2018-09-28T13:36:33.394Z,17.66
2018-09-28T13:39:00.939Z,17.32
2018-09-28T13:41:29.827Z,17.04
2018-09-28T13:43:57.394Z,16.81
2018-09-28T13:46:24.933Z,16.65
2018-09-28T13:48:52.872Z,16.50
2018-09-28T13:51:20.352Z,16.41
2018-09-28T13:53:47.973Z,16.33
2018-09-28T13:56:15.890Z,16.27
2018-09-28T13:58:44.455Z,16.25
2018-09-28T14:01:12.227Z,16.27
2018-09-28T14:03:42.711Z,16.32
2018-09-28T14:06:11.232Z,16.39
2018-09-28T14:08:39.423Z,16.43
2018-09-28T14:11:09.351Z,16.53
2018-09-28T14:13:36.922Z,16.62
2018-09-28T14:16:04.472Z,16.67
2018-09-28T14:18:32.371Z,16.73
2018-09-28T14:20:59.883Z,16.82
2018-09-28T14:23:27.441Z,16.84
2018-09-28T14:25:55.299Z,16.80
2018-09-28T14:28:22.857Z,16.73
2018-09-28T14:30:50.776Z,16.66
2018-09-28T14:33:18.721Z,16.62
2018-09-28T14:35:46.248Z,16.62
2018-09-28T14:38:15.454Z,16.65
2018-09-28T14:40:43.384Z,16.75
2018-09-28T14:43:11.931Z,16.87
2018-09-28T14:45:39.514Z,17.04
2018-09-28T14:48:07.387Z,17.27
2018-09-28T14:50:35.547Z,17.54
2018-09-28T14:53:03.093Z,17.76
2018-09-28T14:55:31.629Z,17.95
2018-09-28T14:58:01.291Z,18.09
2018-09-28T15:00:29.745Z,18.24
2018-09-28T15:02:57.689Z,18.24
2018-09-28T15:05:25.194Z,18.08
2018-09-28T15:07:53.644Z,17.85
2018-09-28T15:10:22.490Z,17.57
2018-09-28T15:12:50.048Z,17.26
2018-09-28T15:15:17.635Z,16.96
2018-09-28T15:17:45.651Z,16.74
2018-09-28T15:20:13.193Z,16.54
2018-09-28T15:22:41.485Z,16.42
2018-09-28T15:25:13.570Z,16.31
2018-09-28T15:27:41.315Z,16.21
2018-09-28T15:30:09.283Z,16.14
2018-09-28T15:32:38.073Z,16.32
2018-09-28T15:35:05.639Z,16.73
2018-09-28T15:37:33.139Z,17.10
2018-09-28T15:40:01.142Z,17.32
2018-09-28T15:42:28.731Z,17.36
2018-09-28T15:44:56.276Z,17.18
2018-09-28T15:47:24.228Z,16.96
2018-09-28T15:49:51.802Z,16.78
2018-09-28T15:52:19.471Z,16.64
2018-09-28T15:54:47.301Z,16.52
2018-09-28T15:57:15.646Z,16.41
2018-09-28T15:59:43.312Z,16.28
2018-09-28T16:02:11.324Z,16.17
2018-09-28T16:04:38.841Z,16.03
2018-09-28T16:22:57.557Z,15.00
2018-09-28T16:25:29.981Z,14.91
2018-09-28T16:27:57.577Z,14.83
2018-09-28T16:33:03.793Z,14.68
2018-09-28T16:35:32.427Z,14.60
2018-09-28T16:38:01.003Z,14.53
2018-09-28T16:40:29.021Z,14.46
2018-09-28T16:42:57.091Z,14.39
2018-09-28T16:45:24.884Z,14.32
2018-09-28T16:47:54.351Z,14.26
2018-09-28T16:50:23.010Z,14.18
2018-09-28T16:52:50.564Z,14.12
2018-09-28T16:55:18.512Z,14.04
2018-09-28T16:57:46.096Z,13.94
2018-09-28T17:00:13.751Z,13.85
2018-09-28T17:02:41.668Z,13.79
2018-09-28T17:05:09.213Z,13.73
2018-09-28T17:07:36.782Z,13.66
2018-09-28T17:10:04.689Z,13.61
2018-09-28T17:12:33.353Z,13.57
2018-09-28T17:15:02.204Z,13.48
2018-09-28T17:17:30.229Z,13.41
2018-09-28T17:30:31.464Z,13.02
2018-09-28T17:32:59.443Z,12.97
2018-09-28T17:35:27.387Z,12.94
2018-09-28T17:37:55.583Z,12.90
2018-09-28T17:40:23.219Z,12.84
2018-09-28T17:42:51.189Z,12.80
2018-09-28T17:45:19.800Z,12.71
2018-09-28T17:47:49.078Z,12.64
2018-09-28T17:50:18.167Z,12.57
2018-09-28T17:52:46.775Z,12.52
2018-09-28T17:55:14.471Z,12.45
2018-09-28T17:57:42.604Z,12.34
2018-09-28T18:00:10.705Z,12.23
2018-09-28T18:02:38.304Z,12.17
2018-09-28T18:05:06.429Z,12.11
2018-09-28T18:07:34.733Z,12.04
2018-09-28T18:10:02.341Z,11.98
2018-09-28T18:12:31.831Z,11.93
2018-09-28T18:15:00.315Z,11.89
2018-09-28T18:17:30.859Z,11.83
2018-09-28T18:19:58.953Z,11.78
2018-09-28T18:22:27.325Z,11.73
2018-09-28T18:24:54.998Z,11.64
2018-09-28T18:27:25.369Z,11.57
2018-09-28T18:29:55.360Z,11.48
2018-09-28T18:32:22.910Z,11.40
2018-09-28T18:34:52.497Z,11.34
2018-09-28T18:37:23.371Z,11.29
2018-09-28T18:39:52.701Z,11.24
2018-09-28T18:42:21.603Z,11.23
2018-09-28T18:44:49.156Z,11.21
2018-09-28T18:47:17.394Z,11.17
2018-09-28T18:49:46.209Z,11.14
2018-09-28T18:52:14.632Z,11.11
2018-09-28T18:54:43.056Z,11.10
2018-09-28T18:57:11.304Z,11.07
2018-09-28T18:59:40.063Z,11.03
2018-09-28T19:02:08.247Z,11.00
2018-09-28T19:04:37.325Z,10.96
2018-09-28T19:07:07.098Z,10.91
2018-09-28T19:09:34.668Z,10.85
2018-09-28T19:12:04.316Z,10.78
2018-09-28T19:14:33.377Z,10.71
2018-09-28T19:17:04.473Z,10.63
2018-09-28T19:19:35.886Z,10.56
2018-09-28T19:22:03.479Z,10.49
2018-09-28T19:24:31.629Z,10.43
2018-09-28T19:27:00.241Z,10.39
2018-09-28T19:29:30.767Z,10.33
2018-09-28T19:31:59.743Z,10.28
2018-09-28T19:34:29.461Z,10.25
2018-09-28T19:36:57.861Z,10.20
2018-09-28T19:39:25.621Z,10.15
2018-09-28T19:41:54.563Z,10.11
2018-09-28T19:44:25.889Z,10.08
2018-09-28T19:46:53.473Z,10.05
2018-09-28T19:49:21.474Z,10.02
2018-09-28T19:51:49.015Z,9.98
2018-09-28T19:54:16.571Z,9.96
2018-09-28T19:56:44.465Z,9.90
2018-09-28T19:59:12.709Z,9.85
2018-09-28T20:01:41.616Z,9.79
2018-09-28T20:04:09.480Z,9.72
2018-09-28T20:06:38.339Z,9.67
2018-09-28T20:09:06.680Z,9.61
2018-09-28T20:11:34.548Z,9.57
2018-09-28T20:14:05.842Z,9.51
2018-09-28T20:16:33.406Z,9.49
2018-09-28T20:19:01.418Z,9.47
2018-09-28T20:21:29.675Z,9.42
2018-09-28T20:24:00.381Z,9.39
2018-09-28T20:26:31.961Z,9.36
2018-09-28T20:29:00.486Z,9.31
2018-09-28T20:31:30.007Z,9.27
2018-09-28T20:33:59.968Z,9.23
2018-09-28T20:36:28.424Z,9.18
2018-09-28T20:38:56.829Z,9.13
2018-09-28T20:41:25.701Z,9.09
2018-09-28T20:43:53.230Z,9.04
2018-09-28T20:46:21.544Z,8.98
2018-09-28T20:48:50.353Z,8.93
2018-09-28T20:51:19.102Z,8.87
2018-09-28T20:53:47.317Z,8.80
2018-09-28T20:56:16.403Z,8.76
2018-09-28T20:58:44.722Z,8.71
2018-09-28T21:01:15.383Z,8.67
2018-09-28T21:03:44.713Z,8.62
2018-09-28T21:06:12.551Z,8.54
2018-09-28T21:08:40.154Z,8.43
2018-09-28T21:11:08.679Z,8.31
2018-09-28T21:13:37.373Z,8.20
2018-09-28T21:16:05.591Z,8.10
2018-09-28T21:18:33.614Z,8.06
2018-09-28T21:21:01.205Z,8.02
2018-09-28T21:23:28.838Z,8.01
2018-09-28T21:25:57.585Z,8.01
2018-09-28T21:28:25.171Z,7.98
2018-09-28T21:30:52.704Z,7.93
2018-09-28T21:33:20.775Z,7.87
2018-09-28T21:35:49.281Z,7.83
2018-09-28T21:38:16.811Z,7.82
2018-09-28T21:40:45.623Z,7.79
2018-09-28T21:43:13.374Z,7.77
2018-09-28T21:45:40.930Z,7.75
2018-09-28T21:48:08.958Z,7.74
2018-09-28T21:50:36.561Z,7.73
2018-09-28T21:53:04.136Z,7.72
2018-09-28T21:55:32.206Z,7.67
2018-09-28T21:58:00.430Z,7.61
2018-09-28T22:00:27.969Z,7.56
2018-09-28T22:02:56.494Z,7.51
2018-09-28T22:05:24.808Z,7.50
2018-09-28T22:07:53.310Z,7.50
2018-09-28T22:10:23.596Z,7.47
2018-09-28T22:12:53.410Z,7.44
2018-09-28T22:15:21.649Z,7.42
2018-09-28T22:17:49.487Z,7.41
2018-09-28T22:20:17.951Z,7.38
2018-09-28T22:22:45.487Z,7.35
2018-09-28T22:25:14.158Z,7.30
2018-09-28T22:27:41.759Z,7.25
2018-09-28T22:30:09.318Z,7.21
2018-09-28T22:32:36.865Z,7.17
2018-09-28T22:35:04.781Z,7.14
2018-09-28T22:37:32.319Z,7.13
2018-09-28T22:40:00.864Z,7.12
2018-09-28T22:42:28.411Z,7.09
2018-09-28T22:44:57.549Z,7.08
2018-09-28T22:47:25.113Z,7.07
2018-09-28T22:49:52.665Z,7.06
2018-09-28T22:52:20.666Z,7.00
2018-09-28T22:54:48.230Z,6.92
2018-09-28T22:57:15.772Z,6.86
2018-09-28T22:59:44.300Z,6.80
2018-09-28T23:02:11.878Z,6.77
2018-09-28T23:04:40.113Z,6.76
2018-09-28T23:07:09.413Z,6.73
2018-09-28T23:09:36.959Z,6.72
2018-09-28T23:12:04.473Z,6.69
2018-09-28T23:14:33.383Z,6.70
2018-09-28T23:17:01.386Z,6.70
2018-09-28T23:19:29.772Z,6.70
2018-09-28T23:21:57.327Z,6.70
2018-09-28T23:24:25.241Z,6.71
2018-09-28T23:26:53.679Z,6.69
2018-09-28T23:29:21.364Z,6.65
2018-09-28T23:31:49.382Z,6.60
2018-09-28T23:34:16.931Z,6.53
2018-09-28T23:36:44.530Z,6.48
2018-09-28T23:39:12.516Z,6.44
2018-09-28T23:41:40.724Z,6.38
2018-09-28T23:44:08.559Z,6.31
2018-09-28T23:46:37.515Z,6.25
2018-09-28T23:49:05.264Z,6.21
2018-09-28T23:51:32.838Z,6.17
2018-09-28T23:54:00.823Z,6.13
2018-09-28T23:56:28.531Z,6.11
2018-09-28T23:58:57.482Z,6.08
